Time;durP1;ratioP1;P1;durP2;ratioP2;P2;SDS_P1;SDS_P2;PMS_P1;PMS_P2;Temp;Humidity;BMP_temperature;BMP_pressure;BME280_temperature;BME280_humidity;BME280_pressure;Samples;Min_cycle;Max_cycle;Signal;HPM_P1;HPM_P2
2022/08/23 00:00:11;;;;;;;4.32;1.90;;;;;;;21.73;43.09;99341.75;343852;28;1912;-62
2022/08/23 00:00:24;;;;;;;3.03;1.80;;;;;;;21.76;43.14;99338.84;344999;28;1639;-62
2022/08/23 00:00:37;;;;;;;3.03;1.83;;;;;;;21.77;43.34;99340.50;343505;28;1894;-62
2022/08/23 00:00:50;;;;;;;3.45;1.90;;;;;;;21.80;43.35;99340.25;342817;28;1608;-62
2022/08/23 00:01:14;;;;;;;3.20;1.80;;;;;;;21.82;43.13;99340.16;342909;28;1310;-61
2022/08/23 00:01:31;;;;;;;2.00;1.70;;;;;;;21.83;43.24;99331.22;343639;28;1184;-62
2022/08/23 00:01:46;;;;;;;2.00;1.67;;;;;;;21.85;43.23;99335.44;343050;28;1834;-62
2022/08/23 00:02:01;;;;;;;1.90;1.50;;;;;;;21.88;42.87;99340.47;343172;28;1889;-61
2022/08/23 00:02:16;;;;;;;2.38;1.70;;;;;;;21.88;43.23;99336.97;343701;28;1062;-61
2022/08/23 00:02:34;;;;;;;3.45;1.80;;;;;;;21.87;43.48;99336.16;343505;28;1353;-62
2022/08/23 00:02:46;;;;;;;3.70;1.80;;;;;;;21.89;43.03;99334.22;344173;28;1930;-62
2022/08/23 00:02:59;;;;;;;2.80;1.80;;;;;;;21.90;43.04;99335.88;344422;28;1829;-62
2022/08/23 00:03:12;;;;;;;2.33;1.70;;;;;;;21.91;43.00;99342.84;345230;28;1066;-62
2022/08/23 00:03:24;;;;;;;2.63;1.67;;;;;;;21.94;42.75;99339.94;344383;28;1957;-62
2022/08/23 00:03:38;;;;;;;2.75;1.70;;;;;;;21.97;43.08;99338.00;344156;28;2028;-62
2022/08/23 00:03:52;;;;;;;3.88;1.70;;;;;;;21.96;42.76;99331.88;344506;28;2035;-62
2022/08/23 00:04:08;;;;;;;3.67;1.65;;;;;;;21.90;42.42;99338.50;344972;28;1357;-62
2022/08/23 00:04:34;;;;;;;3.55;1.70;;;;;;;21.94;42.41;99339.94;343888;28;1022;-62
2022/08/23 00:04:47;;;;;;;2.95;1.90;;;;;;;21.98;42.35;99337.88;343817;28;2134;-62
2022/08/23 00:05:19;;;;;;;2.90;1.85;;;;;;;21.99;42.08;99330.75;343848;28;1578;-62
2022/08/23 00:05:31;;;;;;;2.72;1.83;;;;;;;21.99;41.80;99330.75;345020;28;1192;-62
2022/08/23 00:05:43;;;;;;;2.50;1.77;;;;;;;21.94;42.44;99334.63;344388;28;1736;-62
2022/08/23 00:05:55;;;;;;;2.58;1.70;;;;;;;21.97;42.02;99338.81;344921;28;1748;-62
2022/08/23 00:06:08;;;;;;;3.33;1.80;;;;;;;21.94;41.93;99334.63;343597;28;1059;-62
2022/08/23 00:06:24;;;;;;;3.33;1.80;;;;;;;21.96;41.88;99331.03;343760;28;1898;-62
2022/08/23 00:06:37;;;;;;;2.78;1.85;;;;;;;21.96;41.91;99331.88;344531;28;1720;-62
2022/08/23 00:06:50;;;;;;;2.33;1.80;;;;;;;21.99;41.96;99336.06;345110;28;1101;-62
2022/08/23 00:07:04;;;;;;;2.45;1.77;;;;;;;21.99;42.23;99336.06;344801;28;1191;-62
2022/08/23 00:07:16;;;;;;;2.88;1.70;;;;;;;22.01;42.32;99336.75;344542;28;2045;-63
2022/08/23 00:07:28;;;;;;;2.47;1.70;;;;;;;21.99;41.90;99331.59;344590;28;1165;-62
2022/08/23 00:07:42;;;;;;;3.10;1.80;;;;;;;21.98;42.03;99329.09;344448;28;1989;-62
2022/08/23 00:07:54;;;;;;;3.47;1.75;;;;;;;21.98;41.96;99337.03;344395;28;1839;-61
2022/08/23 00:08:06;;;;;;;3.80;1.70;;;;;;;21.96;41.90;99337.16;344486;28;1861;-62
2022/08/23 00:08:18;;;;;;;3.35;1.60;;;;;;;21.95;41.45;99338.13;344730;28;1346;-62
2022/08/23 00:08:30;;;;;;;2.30;1.60;;;;;;;21.93;41.52;99332.97;344996;28;1031;-62
2022/08/23 00:08:44;;;;;;;3.03;1.70;;;;;;;21.93;41.48;99332.97;344437;28;2335;-62
2022/08/23 00:09:00;;;;;;;2.85;1.73;;;;;;;21.94;41.52;99334.63;344771;28;1978;-62
2022/08/23 00:09:14;;;;;;;2.83;1.67;;;;;;;21.97;41.91;99332.69;344723;28;1707;-62
2022/08/23 00:09:27;;;;;;;3.60;1.77;;;;;;;22.00;41.96;99337.75;343889;28;2172;-62
2022/08/23 00:09:40;;;;;;;3.55;1.83;;;;;;;22.00;41.89;99332.47;345037;28;1882;-62
2022/08/23 00:09:51;;;;;;;3.67;1.90;;;;;;;22.02;41.80;99336.63;345295;28;1122;-62
2022/08/23 00:10:07;;;;;;;4.38;1.98;;;;;;;22.03;41.85;99337.47;344821;28;1339;-61
2022/08/23 00:10:19;;;;;;;4.25;1.90;;;;;;;22.06;42.04;99342.50;344714;28;1576;-62
2022/08/23 00:10:31;;;;;;;3.90;1.80;;;;;;;22.06;42.58;99332.75;344245;28;1042;-62
2022/08/23 00:10:43;;;;;;;3.60;1.85;;;;;;;22.06;41.94;99337.22;343410;28;1844;-62
2022/08/23 00:10:55;;;;;;;3.25;1.83;;;;;;;22.08;42.01;99330.00;343399;28;1774;-62
2022/08/23 00:11:27;;;;;;;2.90;1.80;;;;;;;22.09;42.64;99336.94;343797;28;1483;-62
2022/08/23 00:11:43;;;;;;;2.08;1.80;;;;;;;22.10;42.72;99333.34;344790;28;1530;-62
2022/08/23 00:12:01;;;;;;;2.47;1.80;;;;;;;22.10;43.12;99338.63;344869;28;1227;-62
2022/08/23 00:12:19;;;;;;;2.85;1.80;;;;;;;22.10;42.87;99333.34;345124;28;1098;-62
2022/08/23 00:12:31;;;;;;;4.45;1.83;;;;;;;22.11;42.83;99327.06;345159;28;1212;-62
2022/08/23 00:12:45;;;;;;;4.22;1.88;;;;;;;22.11;42.98;99329.72;344157;28;1916;-62
2022/08/23 00:12:57;;;;;;;2.72;1.90;;;;;;;22.09;42.83;99326.34;344867;28;1781;-61
2022/08/23 00:13:09;;;;;;;2.28;1.80;;;;;;;22.09;42.79;99337.81;344828;28;1357;-62
2022/08/23 00:13:21;;;;;;;2.22;1.60;;;;;;;22.10;42.76;99328.88;344987;28;1185;-62
2022/08/23 00:13:33;;;;;;;2.05;1.50;;;;;;;22.10;43.20;99328.88;345289;28;1325;-62
2022/08/23 00:14:03;;;;;;;2.63;1.67;;;;;;;22.10;42.78;99326.22;344411;28;1598;-62
2022/08/23 00:14:24;;;;;;;2.80;2.00;;;;;;;22.11;42.86;99327.94;344421;28;1754;-63
2022/08/23 00:14:39;;;;;;;2.85;1.90;;;;;;;22.12;42.64;99326.94;344844;28;1448;-62
2022/08/23 00:14:54;;;;;;;2.03;1.80;;;;;;;22.12;42.04;99326.94;344944;28;1723;-62
2022/08/23 00:15:09;;;;;;;2.03;1.83;;;;;;;22.13;42.52;99322.47;343629;28;1992;-62
2022/08/23 00:15:22;;;;;;;2.50;1.80;;;;;;;22.12;42.15;99326.94;343916;28;1000;-62
2022/08/23 00:15:34;;;;;;;3.78;1.90;;;;;;;22.13;42.37;99322.47;344287;28;1147;-62
2022/08/23 00:15:46;;;;;;;3.72;1.80;;;;;;;22.11;42.79;99324.41;342867;28;1882;-61
2022/08/23 00:15:59;;;;;;;3.70;1.80;;;;;;;22.12;42.60;99326.09;343292;28;1715;-62
2022/08/23 00:16:11;;;;;;;3.17;1.70;;;;;;;22.11;42.61;99324.41;343561;28;1060;-63
2022/08/23 00:16:23;;;;;;;2.80;1.77;;;;;;;22.11;42.73;99319.97;343595;28;1245;-62
2022/08/23 00:16:35;;;;;;;2.47;1.70;;;;;;;22.13;42.15;99322.47;342892;28;1780;-63
2022/08/23 00:16:48;;;;;;;2.10;1.70;;;;;;;22.12;42.32;99315.53;342706;28;1737;-62
2022/08/23 00:17:00;;;;;;;1.75;1.63;;;;;;;22.13;42.12;99319.81;343243;28;1290;-62
2022/08/23 00:17:13;;;;;;;1.98;1.70;;;;;;;22.13;42.56;99327.78;343521;28;1046;-62
2022/08/23 00:17:46;;;;;;;2.75;1.70;;;;;;;22.13;42.53;99322.47;343090;28;2275;-63
2022/08/23 00:17:59;;;;;;;3.08;1.83;;;;;;;22.13;43.03;99328.63;344777;28;1971;-61
2022/08/23 00:18:13;;;;;;;2.92;1.80;;;;;;;22.14;42.92;99322.34;345272;28;1120;-62
2022/08/23 00:18:25;;;;;;;2.50;1.60;;;;;;;22.15;42.55;99325.81;344745;28;1621;-61
2022/08/23 00:18:37;;;;;;;2.28;1.55;;;;;;;22.16;42.27;99321.41;345338;28;1182;-62
2022/08/23 00:18:49;;;;;;;2.42;1.48;;;;;;;22.12;42.23;99326.09;344897;28;1628;-62
2022/08/23 00:19:05;;;;;;;3.38;1.70;;;;;;;22.10;42.05;99318.28;344661;28;1212;-62
2022/08/23 00:19:18;;;;;;;3.13;1.70;;;;;;;22.11;42.42;99324.41;344835;28;1114;-62
2022/08/23 00:19:30;;;;;;;2.28;1.60;;;;;;;22.10;42.34;99320.94;343835;28;1878;-63
2022/08/23 00:19:43;;;;;;;2.13;1.50;;;;;;;22.13;42.17;99317.19;344200;28;1542;-62
2022/08/23 00:19:56;;;;;;;3.40;1.55;;;;;;;22.13;42.18;99327.78;345057;28;1154;-62
2022/08/23 00:20:11;;;;;;;3.60;1.75;;;;;;;22.10;42.84;99318.28;344676;28;1478;-62
2022/08/23 00:20:23;;;;;;;3.80;2.00;;;;;;;22.12;42.75;99321.66;343590;28;979;-62
2022/08/23 00:20:36;;;;;;;3.17;1.85;;;;;;;22.12;42.71;99324.28;343638;28;1245;-62
2022/08/23 00:20:48;;;;;;;2.03;1.65;;;;;;;22.12;43.01;99320.81;343571;28;1256;-61
2022/08/23 00:21:00;;;;;;;1.88;1.70;;;;;;;22.11;43.61;99319.97;344138;28;1309;-62
2022/08/23 00:21:13;;;;;;;2.38;1.67;;;;;;;22.11;42.97;99329.72;344871;28;1047;-62
2022/08/23 00:21:25;;;;;;;2.40;1.70;;;;;;;22.11;43.19;99324.41;344863;28;1091;-62
2022/08/23 00:21:37;;;;;;;2.08;1.73;;;;;;;22.10;43.40;99323.59;344564;28;1078;-62
2022/08/23 00:21:51;;;;;;;1.95;1.70;;;;;;;22.10;43.31;99322.75;344527;28;1337;-62
2022/08/23 00:22:04;;;;;;;2.10;1.70;;;;;;;22.10;42.84;99328.06;344561;28;1387;-62
2022/08/23 00:22:16;;;;;;;2.30;1.60;;;;;;;22.07;43.27;99323.88;343752;28;1093;-62
2022/08/23 00:22:28;;;;;;;2.50;1.63;;;;;;;22.05;43.55;99325.78;344895;28;1015;-62
2022/08/23 00:22:41;;;;;;;2.30;1.60;;;;;;;22.04;43.25;99323.28;344354;28;1991;-62
2022/08/23 00:22:53;;;;;;;2.55;1.70;;;;;;;22.03;43.31;99330.34;343572;28;1737;-62
2022/08/23 00:23:05;;;;;;;2.30;1.70;;;;;;;22.03;43.47;99321.59;343672;28;1344;-62
2022/08/23 00:23:17;;;;;;;1.85;1.67;;;;;;;22.02;43.03;99322.56;342793;28;1886;-62
2022/08/23 00:23:29;;;;;;;1.80;1.60;;;;;;;22.00;43.35;99328.00;343076;28;1649;-62
2022/08/23 00:23:41;;;;;;;2.30;1.70;;;;;;;22.01;42.95;99328.81;343141;28;1983;-63
2022/08/23 00:23:53;;;;;;;3.10;1.77;;;;;;;21.99;43.15;99321.00;343413;28;1737;-62
2022/08/23 00:24:08;;;;;;;2.67;1.70;;;;;;;22.00;43.32;99327.16;342425;28;1099;-62
2022/08/23 00:24:21;;;;;;;2.40;1.80;;;;;;;21.98;42.99;99319.34;343509;28;1797;-62
2022/08/23 00:24:34;;;;;;;2.53;1.88;;;;;;;21.99;43.03;99322.81;343609;28;1325;-62
2022/08/23 00:24:51;;;;;;;2.72;1.90;;;;;;;22.00;43.20;99332.47;343227;28;1698;-62
2022/08/23 00:25:07;;;;;;;3.00;2.03;;;;;;;22.00;43.03;99327.16;344791;28;1308;-62
2022/08/23 00:25:19;;;;;;;3.55;2.03;;;;;;;22.00;43.33;99327.16;344973;28;1255;-62
2022/08/23 00:25:31;;;;;;;3.15;1.95;;;;;;;21.99;43.28;99325.47;344527;28;1567;-62
2022/08/23 00:25:43;;;;;;;2.30;1.80;;;;;;;22.02;43.43;99327.88;344147;28;1911;-61
2022/08/23 00:25:56;;;;;;;2.30;1.70;;;;;;;22.03;43.37;99327.72;343841;28;2188;-62
2022/08/23 00:26:08;;;;;;;2.42;1.70;;;;;;;22.02;42.98;99325.22;345098;28;1070;-61
2022/08/23 00:26:20;;;;;;;3.10;1.80;;;;;;;22.02;43.21;99322.56;344971;28;1102;-62
2022/08/23 00:26:53;;;;;;;3.40;1.75;;;;;;;21.99;43.18;99325.47;344895;28;1257;-61
2022/08/23 00:27:12;;;;;;;2.30;1.80;;;;;;;22.00;43.33;99327.16;345030;28;1035;-62
2022/08/23 00:27:24;;;;;;;2.40;1.83;;;;;;;21.99;43.13;99320.19;344523;28;2159;-62
2022/08/23 00:27:36;;;;;;;2.40;1.80;;;;;;;22.02;42.98;99325.22;344669;28;1033;-62
2022/08/23 00:27:48;;;;;;;2.25;1.70;;;;;;;22.03;43.16;99313.66;344018;28;1799;-62
2022/08/23 00:28:01;;;;;;;2.35;1.60;;;;;;;22.02;42.87;99325.22;344972;28;1774;-62
2022/08/23 00:28:13;;;;;;;2.60;1.70;;;;;;;22.03;42.61;99326.88;344894;28;1370;-62
2022/08/23 00:28:25;;;;;;;2.95;1.80;;;;;;;22.04;42.54;99328.56;343595;28;1766;-62
2022/08/23 00:28:37;;;;;;;2.50;1.70;;;;;;;22.04;42.57;99325.94;344995;28;1738;-62
2022/08/23 00:28:49;;;;;;;2.58;1.55;;;;;;;22.05;42.51;99324.94;344637;28;2094;-62
2022/08/23 00:29:02;;;;;;;3.63;1.63;;;;;;;22.03;43.42;99332.19;344736;28;1134;-63
2022/08/23 00:29:14;;;;;;;3.95;1.70;;;;;;;22.01;43.65;99329.66;344106;28;2005;-62
2022/08/23 00:29:35;;;;;;;4.60;1.80;;;;;;;21.99;42.89;99321.00;344621;28;2354;-62
2022/08/23 00:29:50;;;;;;;3.40;1.80;;;;;;;22.01;43.11;99329.66;344885;28;1354;-62
2022/08/23 00:30:06;;;;;;;2.35;1.70;;;;;;;22.00;42.84;99327.16;345170;28;1151;-62
2022/08/23 00:30:18;;;;;;;1.83;1.60;;;;;;;22.00;43.01;99321.88;344851;28;1074;-62
2022/08/23 00:30:30;;;;;;;2.47;1.58;;;;;;;21.99;42.98;99328.13;344963;28;1205;-62
2022/08/23 00:30:44;;;;;;;2.90;1.60;;;;;;;21.98;43.00;99327.28;344497;28;1901;-62
2022/08/23 00:30:57;;;;;;;2.90;1.52;;;;;;;21.99;42.86;99326.31;344829;28;1865;-62
2022/08/23 00:31:09;;;;;;;2.38;1.73;;;;;;;22.00;42.55;99327.16;344584;28;1655;-62
2022/08/23 00:31:21;;;;;;;3.08;1.90;;;;;;;21.98;42.53;99324.63;344588;28;1596;-63
2022/08/23 00:31:33;;;;;;;2.92;1.95;;;;;;;21.78;42.77;99323.69;345133;28;1082;-61
2022/08/23 00:31:45;;;;;;;4.40;1.80;;;;;;;21.80;42.91;99326.22;344321;28;1879;-62
2022/08/23 00:31:57;;;;;;;4.13;1.80;;;;;;;21.81;43.05;99328.72;344213;28;1789;-62
2022/08/23 00:32:13;;;;;;;3.50;1.70;;;;;;;21.83;43.11;99329.44;344914;28;1075;-62
2022/08/23 00:32:31;;;;;;;3.42;1.80;;;;;;;21.88;42.86;99323.75;344229;28;1879;-62
2022/08/23 00:32:44;;;;;;;3.58;1.80;;;;;;;21.89;42.70;99323.63;345021;28;1825;-62
2022/08/23 00:32:56;;;;;;;3.08;1.80;;;;;;;21.90;42.76;99321.81;345070;28;1362;-63
2022/08/23 00:33:09;;;;;;;3.17;2.13;;;;;;;21.91;43.26;99321.69;345254;28;1006;-61
2022/08/23 00:33:21;;;;;;;2.78;2.05;;;;;;;21.91;42.89;99326.97;344992;28;1024;-64
2022/08/23 00:33:34;;;;;;;3.03;2.05;;;;;;;21.92;43.26;99326.00;344830;28;1136;-62
2022/08/23 00:33:46;;;;;;;2.58;1.80;;;;;;;21.92;43.15;99323.34;344417;28;2009;-62
2022/08/23 00:33:57;;;;;;;2.90;1.77;;;;;;;21.95;42.87;99324.88;343363;28;1806;-62
2022/08/23 00:34:10;;;;;;;2.70;1.70;;;;;;;21.96;42.47;99325.75;343248;28;2281;-62
2022/08/23 00:34:22;;;;;;;2.92;1.90;;;;;;;21.97;42.87;99316.81;343675;28;2176;-62
2022/08/23 00:34:36;;;;;;;3.38;1.90;;;;;;;21.99;42.64;99325.47;342764;28;1900;-62
2022/08/23 00:34:48;;;;;;;2.60;1.75;;;;;;;21.99;42.54;99322.81;342223;28;1950;-62
2022/08/23 00:35:01;;;;;;;2.15;1.67;;;;;;;21.99;42.54;99330.75;343460;28;1648;-62
2022/08/23 00:35:15;;;;;;;2.20;1.63;;;;;;;21.98;42.57;99318.50;343917;28;1041;-62
2022/08/23 00:35:38;;;;;;;3.50;1.55;;;;;;;21.92;42.19;99318.06;342294;28;2376;-62
2022/08/23 00:35:50;;;;;;;3.55;1.67;;;;;;;21.89;42.33;99320.97;343181;28;1918;-62
2022/08/23 00:36:03;;;;;;;3.03;1.70;;;;;;;21.86;42.60;99321.22;344576;28;1139;-62
2022/08/23 00:36:15;;;;;;;3.50;1.70;;;;;;;21.85;42.51;99319.56;345066;28;1187;-62
2022/08/23 00:36:27;;;;;;;2.90;1.80;;;;;;;21.85;42.85;99324.00;344989;28;1031;-61
2022/08/23 00:36:40;;;;;;;2.22;1.80;;;;;;;21.86;43.18;99326.53;344819;28;1986;-62
2022/08/23 00:36:52;;;;;;;2.00;1.80;;;;;;;21.86;42.63;99318.59;344699;28;2187;-62
2022/08/23 00:37:06;;;;;;;2.83;1.85;;;;;;;21.85;42.62;99324.00;344736;28;1149;-62
2022/08/23 00:37:19;;;;;;;3.28;1.90;;;;;;;21.84;42.85;99328.44;344852;28;1342;-62
2022/08/23 00:37:32;;;;;;;3.00;1.80;;;;;;;21.86;43.27;99321.22;344847;28;1589;-62
2022/08/23 00:37:45;;;;;;;2.47;1.70;;;;;;;21.86;43.07;99326.53;344331;28;1747;-63
2022/08/23 00:38:17;;;;;;;2.50;1.70;;;;;;;21.86;42.84;99321.22;344559;28;1915;-63
2022/08/23 00:38:45;;;;;;;3.28;1.80;;;;;;;21.89;43.18;99317.47;344474;28;2126;-62
2022/08/23 00:38:57;;;;;;;2.65;1.80;;;;;;;21.88;43.14;99324.56;344660;28;1772;-62
2022/08/23 00:39:10;;;;;;;2.80;1.80;;;;;;;21.88;43.03;99319.28;344690;28;1139;-62
2022/08/23 00:39:22;;;;;;;2.50;1.70;;;;;;;21.89;42.88;99320.97;344910;28;1054;-62
2022/08/23 00:39:35;;;;;;;1.95;1.70;;;;;;;21.89;42.59;99318.34;344979;28;1096;-62
2022/08/23 00:39:47;;;;;;;2.83;1.98;;;;;;;21.90;43.10;99311.22;344200;28;1922;-62
2022/08/23 00:40:00;;;;;;;2.80;2.00;;;;;;;21.89;42.87;99318.34;344877;28;1973;-63
2022/08/23 00:40:15;;;;;;;2.47;2.10;;;;;;;21.89;42.45;99314.81;344457;28;1970;-62
2022/08/23 00:40:27;;;;;;;2.72;2.03;;;;;;;21.87;42.30;99317.63;344541;28;1881;-62
2022/08/23 00:40:43;;;;;;;3.05;2.00;;;;;;;21.88;42.40;99324.56;344815;28;1151;-62
2022/08/23 00:40:55;;;;;;;2.70;1.83;;;;;;;21.87;42.26;99317.63;344822;28;1768;-62
2022/08/23 00:41:07;;;;;;;3.28;1.80;;;;;;;21.89;42.56;99315.69;343845;28;1590;-62
2022/08/23 00:41:19;;;;;;;2.85;1.60;;;;;;;21.90;42.62;99321.81;345021;28;1028;-62
2022/08/23 00:41:33;;;;;;;2.53;1.70;;;;;;;21.91;42.62;99326.13;345006;28;1066;-62
2022/08/23 00:41:47;;;;;;;2.97;1.85;;;;;;;21.91;42.31;99320.81;342527;28;1961;-62
2022/08/23 00:47:38;;;;;;;3.40;1.98;;;;;;;21.90;42.40;99327.94;343059;28;1747;-61
2022/08/23 00:47:44;;;;;;;2.33;1.90;;;;;;;21.59;43.93;99329.69;340567;28;1801;-63
2022/08/23 00:47:56;;;;;;;2.60;1.80;;;;;;;21.59;43.80;99326.19;343553;28;1922;-62
2022/08/23 00:48:11;;;;;;;2.92;1.90;;;;;;;21.59;44.17;99323.53;345227;28;1074;-62
2022/08/23 00:48:23;;;;;;;4.03;1.92;;;;;;;21.58;44.04;99324.53;345027;28;1010;-62
2022/08/23 00:48:37;;;;;;;4.88;2.05;;;;;;;21.56;44.61;99327.28;343541;28;1037;-62
2022/08/23 00:48:50;;;;;;;3.75;1.90;;;;;;;21.53;44.93;99324.88;343458;28;1214;-62
2022/08/23 00:49:07;;;;;;;4.53;2.08;;;;;;;21.53;44.47;99320.47;343580;28;1446;-62
2022/08/23 00:49:20;;;;;;;3.53;2.00;;;;;;;21.52;44.63;99324.06;343587;28;1182;-62
2022/08/23 00:49:35;;;;;;;2.70;1.83;;;;;;;21.50;44.47;99326.00;343239;28;1382;-61
2022/08/23 00:49:55;;;;;;;3.28;2.03;;;;;;;21.49;44.57;99324.31;344172;28;1712;-62
2022/08/23 00:50:42;;;;;;;3.38;2.05;;;;;;;21.47;44.35;99326.25;341925;28;1157;-62
2022/08/23 00:51:10;;;;;;;3.90;2.10;;;;;;;21.43;44.65;99327.47;343334;28;1079;-62
2022/08/23 00:51:34;;;;;;;2.78;1.77;;;;;;;21.42;44.53;99320.47;342995;28;1420;-61
2022/08/23 00:52:09;;;;;;;3.25;1.80;;;;;;;21.38;44.27;99320.88;343239;28;1597;-62
2022/08/23 00:53:03;;;;;;;3.83;1.75;;;;;;;21.29;44.78;99322.47;342845;28;1785;-62
2022/08/23 00:53:25;;;;;;;3.13;1.50;;;;;;;21.22;44.75;99321.28;345191;28;1662;-62
2022/08/23 00:53:41;;;;;;;3.58;1.88;;;;;;;21.21;44.61;99328.38;345162;28;1162;-62
2022/08/23 00:53:57;;;;;;;3.25;1.65;;;;;;;21.20;45.26;99325.88;344982;28;1840;-62
2022/08/23 00:54:11;;;;;;;5.30;1.80;;;;;;;21.18;45.44;99318.03;345362;28;1026;-61
2022/08/23 00:54:26;;;;;;;4.88;1.90;;;;;;;21.20;45.05;99323.22;344280;28;1874;-61
2022/08/23 00:54:41;;;;;;;3.10;1.83;;;;;;;21.15;45.94;99321.78;344997;28;1235;-63
2022/08/23 00:54:54;;;;;;;2.05;1.70;;;;;;;21.17;45.29;99328.75;344346;28;1488;-62
2022/08/23 00:55:06;;;;;;;2.10;1.60;;;;;;;21.19;45.08;99327.66;344083;28;1316;-62
2022/08/23 00:55:20;;;;;;;2.60;1.60;;;;;;;21.20;45.26;99329.34;344501;28;1262;-62
2022/08/23 00:55:33;;;;;;;2.75;1.63;;;;;;;21.20;44.97;99324.03;344580;28;1904;-62
2022/08/23 00:55:49;;;;;;;3.20;1.70;;;;;;;21.21;44.75;99320.47;344517;28;1718;-62
2022/08/23 00:56:05;;;;;;;3.45;1.73;;;;;;;21.19;44.50;99322.38;344611;28;1631;-63
2022/08/23 00:56:19;;;;;;;2.95;1.90;;;;;;;21.08;45.03;99323.25;344460;28;1427;-63
2022/08/23 00:56:33;;;;;;;2.90;1.92;;;;;;;21.02;44.87;99315.81;343506;28;1037;-62
2022/08/23 00:56:45;;;;;;;2.92;1.92;;;;;;;21.03;44.62;99324.59;343555;28;1224;-62
2022/08/23 00:57:01;;;;;;;3.65;1.90;;;;;;;21.01;45.14;99322.09;343399;28;1291;-62
2022/08/23 00:57:18;;;;;;;6.10;1.80;;;;;;;21.00;45.05;99323.03;343393;28;1178;-62
2022/08/23 00:57:31;;;;;;;4.78;1.70;;;;;;;20.96;44.90;99321.59;342327;28;1040;-62
2022/08/23 00:57:44;;;;;;;2.65;1.73;;;;;;;20.91;45.10;99318.50;341161;29;1158;-61
2022/08/23 00:57:58;;;;;;;3.85;1.90;;;;;;;20.82;45.61;99317.44;340973;28;1351;-62
2022/08/23 00:58:12;;;;;;;4.13;1.90;;;;;;;20.84;45.33;99317.31;342268;28;1618;-62
2022/08/23 00:58:26;;;;;;;2.97;1.80;;;;;;;20.81;45.21;99322.88;341985;28;1044;-62
2022/08/23 00:58:38;;;;;;;2.17;1.63;;;;;;;20.75;45.28;99319.72;343066;28;1309;-62
2022/08/23 00:58:50;;;;;;;2.13;1.67;;;;;;;20.71;45.25;99318.31;343327;28;2573;-62
2022/08/23 00:59:02;;;;;;;2.35;1.73;;;;;;;20.61;45.67;99321.81;343403;28;1322;-61
2022/08/23 00:59:14;;;;;;;2.45;1.70;;;;;;;20.66;45.67;99324.91;343421;28;1198;-62
2022/08/23 00:59:27;;;;;;;2.00;1.73;;;;;;;20.61;45.80;99320.00;343492;28;1400;-62
2022/08/23 00:59:40;;;;;;;1.77;1.63;;;;;;;20.60;45.74;99315.66;345033;28;1020;-62
2022/08/23 00:59:52;;;;;;;2.05;1.80;;;;;;;20.51;46.07;99327.78;345248;28;1214;-62
2022/08/23 01:00:07;;;;;;;2.90;1.80;;;;;;;20.55;45.75;99325.75;345195;28;1089;-62
2022/08/23 01:00:19;;;;;;;4.07;1.90;;;;;;;20.52;46.11;99325.97;344618;28;1773;-62
2022/08/23 01:00:33;;;;;;;3.90;1.90;;;;;;;20.51;46.22;99322.50;343359;28;1064;-62
2022/08/23 01:00:48;;;;;;;6.53;1.90;;;;;;;20.58;45.93;99328.13;344050;28;1352;-62
2022/08/23 01:01:02;;;;;;;6.90;1.98;;;;;;;20.56;46.15;99324.75;344843;28;1168;-62
2022/08/23 01:01:15;;;;;;;3.35;1.95;;;;;;;20.61;46.24;99324.44;345182;28;1101;-62
2022/08/23 01:01:28;;;;;;;2.67;1.98;;;;;;;20.65;45.62;99321.44;345198;28;1247;-62
2022/08/23 01:01:42;;;;;;;3.30;2.00;;;;;;;20.67;45.34;99327.44;345078;28;1114;-62
2022/08/23 01:01:54;;;;;;;3.90;1.83;;;;;;;20.68;45.38;99326.47;345173;28;1447;-62
2022/08/23 01:02:08;;;;;;;3.90;1.83;;;;;;;20.71;45.42;99323.59;343290;28;1731;-62
2022/08/23 01:02:20;;;;;;;3.47;1.80;;;;;;;20.76;45.39;99325.84;344603;28;1297;-61
2022/08/23 01:02:33;;;;;;;3.08;1.70;;;;;;;20.78;45.68;99328.38;344754;28;1125;-63
2022/08/23 01:02:47;;;;;;;3.85;1.80;;;;;;;20.77;45.83;99321.44;345152;28;1333;-62
2022/08/23 01:03:01;;;;;;;4.03;1.75;;;;;;;20.80;45.61;99331.72;344799;28;1240;-62
2022/08/23 01:03:13;;;;;;;3.20;1.75;;;;;;;20.82;45.50;99324.53;345221;28;1108;-62
2022/08/23 01:03:29;;;;;;;2.40;1.88;;;;;;;20.78;44.88;99323.91;344252;28;1802;-62
2022/08/23 01:03:53;;;;;;;5.03;1.90;;;;;;;20.73;45.92;99326.13;345759;28;1369;-62
2022/08/23 01:04:16;;;;;;;5.22;1.80;;;;;;;20.72;46.16;99330.53;344064;28;1198;-62
2022/08/23 01:04:36;;;;;;;2.58;1.80;;;;;;;20.68;45.92;99323.81;343772;28;1246;-62
2022/08/23 01:04:57;;;;;;;1.88;1.60;;;;;;;20.78;45.71;99333.66;343537;28;1896;-62
2022/08/23 01:05:11;;;;;;;3.40;1.83;;;;;;;20.78;45.54;99328.38;344630;28;1739;-62
2022/08/23 01:05:30;;;;;;;3.90;1.90;;;;;;;20.81;45.15;99328.16;345032;28;1198;-61
2022/08/23 01:06:00;;;;;;;2.40;1.65;;;;;;;20.84;45.48;99322.59;343654;28;1177;-62
2022/08/23 01:06:18;;;;;;;2.00;1.70;;;;;;;20.72;45.79;99322.59;343639;28;1232;-62
2022/08/23 01:07:16;;;;;;;4.10;1.80;;;;;;;20.80;45.33;99334.38;343395;28;1292;-62
2022/08/23 01:07:53;;;;;;;2.70;1.80;;;;;;;20.80;45.57;99321.16;338232;29;1257;-62
2022/08/23 01:08:05;;;;;;;2.28;1.80;;;;;;;20.75;45.35;99330.31;335306;29;1617;-62
2022/08/23 01:08:18;;;;;;;3.78;1.73;;;;;;;20.75;45.89;99329.47;335983;29;1320;-62
2022/08/23 01:08:32;;;;;;;4.63;1.67;;;;;;;20.79;46.38;99330.06;337005;29;1030;-62
2022/08/23 01:08:51;;;;;;;4.88;1.88;;;;;;;20.79;45.43;99328.25;336479;29;1988;-62
2022/08/23 01:09:15;;;;;;;3.85;2.10;;;;;;;20.80;45.53;99329.09;337858;29;1913;-62
2022/08/23 01:09:27;;;;;;;2.45;1.77;;;;;;;20.85;45.55;99334.84;337533;29;1787;-62
2022/08/23 01:09:43;;;;;;;2.08;1.60;;;;;;;20.87;45.31;99325.00;337519;29;1046;-61
2022/08/23 01:09:59;;;;;;;1.80;1.70;;;;;;;20.84;45.64;99333.16;338198;29;1393;-62
2022/08/23 01:10:38;;;;;;;1.83;1.73;;;;;;;20.92;45.67;99333.38;340455;28;1225;-62
2022/08/23 01:10:58;;;;;;;2.33;1.67;;;;;;;20.95;45.88;99341.91;343791;28;1611;-62
2022/08/23 01:11:15;;;;;;;2.60;1.65;;;;;;;20.97;45.58;99336.50;344485;28;1437;-63
2022/08/23 01:11:32;;;;;;;2.53;1.88;;;;;;;20.97;45.59;99333.88;345132;28;1309;-62
2022/08/23 01:11:48;;;;;;;2.70;1.98;;;;;;;21.00;45.56;99338.06;345080;28;1837;-63
2022/08/23 01:12:20;;;;;;;3.00;1.83;;;;;;;21.01;45.14;99332.66;344279;28;1503;-62
2022/08/23 01:12:49;;;;;;;2.25;1.83;;;;;;;21.03;44.91;99332.53;345079;28;1034;-62
2022/08/23 01:13:20;;;;;;;2.90;1.98;;;;;;;21.02;44.91;99336.97;344760;28;1284;-61
2022/08/23 01:13:41;;;;;;;2.60;1.65;;;;;;;20.94;44.89;99328.81;343658;28;861;-62
2022/08/23 01:13:59;;;;;;;2.00;1.50;;;;;;;20.91;45.81;99339.66;343603;28;1398;-62
2022/08/23 01:14:17;;;;;;;2.20;1.60;;;;;;;20.97;45.70;99330.34;344379;28;1720;-62
2022/08/23 01:14:43;;;;;;;2.28;1.70;;;;;;;21.01;45.40;99334.47;343713;28;1048;-62
2022/08/23 01:15:08;;;;;;;2.83;1.73;;;;;;;21.02;45.05;99336.97;343607;28;1284;-62
2022/08/23 01:15:35;;;;;;;3.13;1.83;;;;;;;21.05;45.71;99336.72;343483;28;1248;-62
2022/08/23 01:15:52;;;;;;;3.20;1.60;;;;;;;21.09;45.44;99334.69;344188;28;1296;-62
2022/08/23 01:16:23;;;;;;;3.40;1.70;;;;;;;21.06;45.44;99341.03;344761;28;1217;-62
2022/08/23 01:16:59;;;;;;;2.30;1.80;;;;;;;21.06;45.30;99333.09;344916;28;1056;-62
2022/08/23 01:17:13;;;;;;;3.08;1.80;;;;;;;21.07;45.30;99334.78;343461;28;1310;-62
2022/08/23 01:17:37;;;;;;;2.35;1.70;;;;;;;21.08;45.17;99338.28;342049;28;1095;-61
2022/08/23 01:17:54;;;;;;;2.05;1.60;;;;;;;21.09;44.91;99332.88;341985;28;1175;-62
2022/08/23 01:18:10;;;;;;;2.95;1.70;;;;;;;21.09;45.24;99332.88;342251;28;1024;-62
2022/08/23 01:18:25;;;;;;;3.13;1.77;;;;;;;21.09;45.27;99338.16;342026;28;1287;-62
2022/08/23 01:18:38;;;;;;;3.05;1.83;;;;;;;21.10;45.40;99333.69;342258;28;1268;-62
2022/08/23 01:18:53;;;;;;;2.88;2.00;;;;;;;21.09;45.30;99343.44;342610;28;1508;-62
2022/08/23 01:19:13;;;;;;;3.17;1.90;;;;;;;21.10;45.22;99334.53;343530;28;1345;-62
2022/08/23 01:19:35;;;;;;;2.10;1.63;;;;;;;21.07;45.43;99340.09;343719;28;1755;-62
2022/08/23 01:19:56;;;;;;;2.08;1.67;;;;;;;21.09;45.18;99337.31;344951;28;987;-62
2022/08/23 01:20:21;;;;;;;3.53;1.80;;;;;;;21.08;45.52;99333.81;344171;28;1322;-62
2022/08/23 01:20:47;;;;;;;2.05;1.65;;;;;;;21.08;45.48;99341.75;344820;28;1038;-62
2022/08/23 01:21:22;;;;;;;3.70;1.70;;;;;;;21.06;45.74;99338.38;344438;28;2071;-62
2022/08/23 01:21:42;;;;;;;3.67;1.80;;;;;;;21.06;45.53;99333.09;343593;28;1192;-62
2022/08/23 01:22:03;;;;;;;3.22;1.70;;;;;;;21.08;45.50;99338.28;343311;28;1567;-62
2022/08/23 01:22:24;;;;;;;3.17;1.60;;;;;;;21.06;45.55;99341.03;344766;28;1618;-62